Seaside Park, NJ (08752)

9:14 AM EDT on September 04, 2015 (GMT -0400)
Seaside Park | | Change Station
CLOSE
Current Station
Personal Weather Station
Location: Seaside Park, NJ
Elevation: 7 ft
Nearby Weather Stations

Elev 7 ft 39.93 °N, 74.08 °W | Updated 1 second ago

Clear
Clear
77.2 °F
Feels Like 79 °F
N
13.0
Wind Variable Wind from NE
Gusts 15.0 mph

Today
High -- | Low -- °F
--% Chance of Precip.
Yesterday
High -- | Low -- °F
Precip. -- in
6:26 AM 7:23 PM
Waning Gibbous, 59% visible
Pressure 30.01 in
Visibility 6.0 miles
Clouds Clear
Heat Index 79 °F
Dew Point 74 °F
Humidity 90%
Rainfall 0.00 in
Snow Depth Not available.
UV 3 out of 12
Pollen 8.70 out of 12
Air Quality Not available.
Flu Activity Not available.
METAR KMJX 041255Z AUTO 04008KT 6SM CLR 26/22 A3001 RMK AO1
Pressure 30.01 in
Visibility 6.0 miles
Clouds Clear
Heat Index 79 °F
Dew Point 74 °F
Humidity 90%
Rainfall 0.00 in
Snow Depth Not available.
UV 3 out of 12
Pollen 8.70 out of 12
Air Quality Not available.
Flu Activity Not available.
METAR KMJX 041255Z AUTO 04008KT 6SM CLR 26/22 A3001 RMK AO1

10-Day Weather Forecast

×

Almanac

Astronomy

Sep. 04, 2015 Rise Set
Actual Time
Civil Twilight
Nautical Twilight
Astronomical Twilight
Moon
Length of Visible Light
Length of Day
Tomorrow will be .
, % of the Moon is Illuminated

Today's Extremes

State Highs State Lows

Community

WunderPhotos

Upload Photos

1,852,179 photos uploaded!

WunderBlogs® & News

Nearby

Air Quality

  Air Quality AQ Index Pollutant
Not available.

Snow Depth

Station Depth Elevation

Earthquake Activity

City Distance Mag. Time & Date
Minimum magnitude displayed is 2.5.

Coastal Water Temperatures

Place Temperature

Stations

Nearby Weather Stations

Station Location Temp. Windchill Dew Point Humidity Wind Precip. Elev Updated Type